Time;durP1;ratioP1;P1;durP2;ratioP2;P2;SDS_P1;SDS_P2;PMS_P1;PMS_P2;Temp;Humidity;BMP_temperature;BMP_pressure;BME280_temperature;BME280_humidity;BME280_pressure;Samples;Min_cycle;Max_cycle;Signal;HPM_P1;HPM_P2
2023/01/25 00:00:16;;;;;;;;;;;-0.60;99.90;;;;;;5012876;28;19970;-78
2023/01/25 00:02:42;;;;;;;;;;;-0.60;99.90;;;;;;5013394;28;19917;-77
2023/01/25 00:05:08;;;;;;;;;;;-0.70;99.90;;;;;;5007951;28;19913;-78
2023/01/25 00:07:33;;;;;;;;;;;-0.80;99.90;;;;;;5008183;28;19988;-78
2023/01/25 00:09:59;;;;;;;;;;;-0.70;99.90;;;;;;5010521;28;20760;-78
2023/01/25 00:12:25;;;;;;;;;;;-0.80;99.90;;;;;;5018803;28;19912;-77
2023/01/25 00:14:50;;;;;;;;;;;-0.80;99.90;;;;;;5009579;28;20084;-78
2023/01/25 00:17:16;;;;;;;;;;;-0.80;99.90;;;;;;5009580;28;19920;-77
2023/01/25 00:19:41;;;;;;;;;;;-0.80;99.90;;;;;;5016452;28;19927;-77
2023/01/25 00:22:07;;;;;;;;;;;-0.70;99.90;;;;;;5019723;28;19917;-79
2023/01/25 00:24:32;;;;;;;;;;;-0.90;99.90;;;;;;5007402;28;19914;-79
2023/01/25 00:26:58;;;;;;;;;;;-0.80;99.90;;;;;;5020558;28;20649;-78
2023/01/25 00:29:24;;;;;;;;;;;-0.90;99.90;;;;;;5005128;28;19921;-78
2023/01/25 00:31:50;;;;;;;;;;;-0.90;99.90;;;;;;5010524;28;19910;-79
2023/01/25 00:34:24;;;;;;;;;;;-1.00;99.90;;;;;;5015155;28;19921;-78
2023/01/25 00:36:51;;;;;;;;;;;-1.00;99.90;;;;;;5003913;28;19963;-78
2023/01/25 00:39:16;;;;;;;;;;;-1.00;99.90;;;;;;5003828;28;19955;-79
2023/01/25 00:41:42;;;;;;;;;;;-1.10;99.90;;;;;;5003149;28;20312;-78
2023/01/25 00:44:08;;;;;;;;;;;-1.20;99.90;;;;;;5003729;28;20198;-79
2023/01/25 00:46:34;;;;;;;;;;;-1.00;99.90;;;;;;5015528;28;19959;-78
2023/01/25 00:48:59;;;;;;;;;;;-1.00;99.90;;;;;;5008375;28;19915;-78
2023/01/25 00:51:25;;;;;;;;;;;-1.10;99.90;;;;;;5007685;28;20454;-77
2023/01/25 00:53:51;;;;;;;;;;;-1.10;99.90;;;;;;5019662;28;19967;-78
2023/01/25 00:56:17;;;;;;;;;;;-1.10;99.90;;;;;;5009965;28;19913;-78
2023/01/25 00:58:42;;;;;;;;;;;-1.10;99.90;;;;;;5004138;28;19921;-77
2023/01/25 01:01:08;;;;;;;;;;;-1.10;99.90;;;;;;5008890;28;19913;-79
2023/01/25 01:03:34;;;;;;;;;;;-1.00;99.90;;;;;;5021489;28;19913;-79
2023/01/25 01:06:01;;;;;;;;;;;-1.00;99.90;;;;;;5023696;28;19949;-78
2023/01/25 01:08:26;;;;;;;;;;;-1.00;99.90;;;;;;5020926;28;19916;-79
2023/01/25 01:10:57;;;;;;;;;;;-0.90;99.90;;;;;;5013341;28;19909;-78
2023/01/25 01:13:22;;;;;;;;;;;-1.00;99.90;;;;;;5025976;28;19913;-78
2023/01/25 01:15:48;;;;;;;;;;;-1.00;99.90;;;;;;4993126;28;19967;-78
2023/01/25 01:18:14;;;;;;;;;;;-1.00;99.90;;;;;;5009226;28;19913;-80
2023/01/25 01:20:39;;;;;;;;;;;-1.20;99.90;;;;;;5006098;28;19909;-80
2023/01/25 01:23:05;;;;;;;;;;;-1.10;99.90;;;;;;5014404;28;19917;-80
2023/01/25 01:25:31;;;;;;;;;;;-1.20;99.90;;;;;;5021311;28;19916;-79
2023/01/25 01:27:57;;;;;;;;;;;-1.20;99.90;;;;;;5016992;28;19913;-79
2023/01/25 01:30:22;;;;;;;;;;;-1.10;99.90;;;;;;5018674;28;20379;-79
2023/01/25 01:32:49;;;;;;;;;;;-1.10;99.90;;;;;;5023914;28;19909;-79
2023/01/25 01:35:15;;;;;;;;;;;-1.30;99.90;;;;;;5014098;28;19918;-79
2023/01/25 01:37:41;;;;;;;;;;;-1.30;99.90;;;;;;5012869;28;19916;-78
2023/01/25 01:40:07;;;;;;;;;;;-1.40;99.90;;;;;;5012044;28;19963;-79
2023/01/25 01:42:53;;;;;;;;;;;-1.30;99.90;;;;;;5014398;28;19920;-78
2023/01/25 01:45:37;;;;;;;;;;;-1.20;99.90;;;;;;5020629;28;20586;-78
2023/01/25 01:48:03;;;;;;;;;;;-1.30;99.90;;;;;;5010954;28;19909;-77
2023/01/25 01:50:28;;;;;;;;;;;-1.20;99.90;;;;;;5010524;28;19913;-77
2023/01/25 01:52:54;;;;;;;;;;;-1.20;99.90;;;;;;5022895;28;19908;-77
2023/01/25 01:55:21;;;;;;;;;;;-1.20;99.90;;;;;;5012186;28;19994;-77
2023/01/25 01:57:49;;;;;;;;;;;-1.10;99.90;;;;;;5013409;28;19932;-77
2023/01/25 02:00:16;;;;;;;;;;;-1.20;99.90;;;;;;5010140;28;19925;-78
2023/01/25 02:02:42;;;;;;;;;;;-1.20;99.90;;;;;;5012538;28;19916;-77
2023/01/25 02:05:10;;;;;;;;;;;-1.30;99.90;;;;;;5014493;28;20645;-77
2023/01/25 02:07:37;;;;;;;;;;;-1.10;99.90;;;;;;5006196;28;20036;-76
2023/01/25 02:10:03;;;;;;;;;;;-1.20;99.90;;;;;;5010172;28;19917;-77
2023/01/25 02:12:29;;;;;;;;;;;-1.30;99.90;;;;;;5011345;28;20000;-77
2023/01/25 02:14:55;;;;;;;;;;;-1.30;99.90;;;;;;5015946;28;19917;-77
2023/01/25 02:17:32;;;;;;;;;;;-1.40;99.90;;;;;;5011522;28;19909;-77
2023/01/25 02:20:07;;;;;;;;;;;-1.40;99.90;;;;;;5011161;28;19909;-77
2023/01/25 02:22:54;;;;;;;;;;;-1.40;99.90;;;;;;4993731;28;20368;-77
2023/01/25 02:25:20;;;;;;;;;;;-1.30;99.90;;;;;;5005454;28;19918;-77
2023/01/25 02:27:51;;;;;;;;;;;-1.30;99.90;;;;;;5009856;28;20454;-77
2023/01/25 02:30:17;;;;;;;;;;;-1.40;99.90;;;;;;5012659;28;19921;-77
2023/01/25 02:32:43;;;;;;;;;;;-1.40;99.90;;;;;;5019269;28;19909;-78
2023/01/25 02:35:18;;;;;;;;;;;-1.40;99.90;;;;;;5011839;28;19917;-77
2023/01/25 02:37:44;;;;;;;;;;;-1.40;99.90;;;;;;5005911;28;19910;-77
2023/01/25 02:40:09;;;;;;;;;;;-1.30;99.90;;;;;;5005506;28;19909;-78
2023/01/25 02:42:35;;;;;;;;;;;-1.40;99.90;;;;;;5017240;28;19959;-78
2023/01/25 02:45:01;;;;;;;;;;;-1.40;99.90;;;;;;5006353;28;19956;-78
2023/01/25 02:47:27;;;;;;;;;;;-1.40;99.90;;;;;;5023961;28;20576;-77
2023/01/25 02:49:53;;;;;;;;;;;-1.50;99.90;;;;;;5022984;28;19995;-77
2023/01/25 02:52:18;;;;;;;;;;;-1.50;99.90;;;;;;5007854;28;19915;-78
2023/01/25 02:54:44;;;;;;;;;;;-1.50;99.90;;;;;;5010270;28;20015;-78
2023/01/25 02:57:10;;;;;;;;;;;-1.50;99.90;;;;;;4992059;28;19959;-78
2023/01/25 02:59:35;;;;;;;;;;;-1.50;99.90;;;;;;5009319;28;19929;-79
2023/01/25 03:02:01;;;;;;;;;;;-1.60;99.90;;;;;;5018776;28;19921;-79
2023/01/25 03:04:26;;;;;;;;;;;-1.50;99.90;;;;;;5013892;28;20014;-80
2023/01/25 03:06:52;;;;;;;;;;;-1.50;99.90;;;;;;4998388;28;19994;-79
2023/01/25 03:09:18;;;;;;;;;;;-1.60;99.90;;;;;;4986761;28;19980;-80
2023/01/25 03:11:43;;;;;;;;;;;-1.50;99.90;;;;;;5010831;28;19955;-78
2023/01/25 03:14:09;;;;;;;;;;;-1.50;99.90;;;;;;5006413;28;20004;-79
2023/01/25 03:16:34;;;;;;;;;;;-1.60;99.90;;;;;;5015445;28;19920;-78
2023/01/25 03:19:00;;;;;;;;;;;-1.60;99.90;;;;;;5006138;28;19915;-78
2023/01/25 03:21:26;;;;;;;;;;;-1.60;99.90;;;;;;5015961;28;19912;-79
2023/01/25 03:23:58;;;;;;;;;;;-1.60;99.90;;;;;;5008832;28;19914;-79
2023/01/25 03:26:24;;;;;;;;;;;-1.60;99.90;;;;;;5018243;28;19909;-80
2023/01/25 03:28:50;;;;;;;;;;;-1.60;99.90;;;;;;5008213;28;19963;-80
2023/01/25 03:31:16;;;;;;;;;;;-1.60;99.90;;;;;;5019197;28;19913;-80
2023/01/25 03:33:42;;;;;;;;;;;-1.60;99.90;;;;;;5017790;28;20670;-80
2023/01/25 03:36:08;;;;;;;;;;;-1.70;99.90;;;;;;5017741;28;19921;-81
2023/01/25 03:38:34;;;;;;;;;;;-1.70;99.90;;;;;;5017302;28;19957;-80
2023/01/25 03:40:59;;;;;;;;;;;-1.70;99.90;;;;;;5020793;28;20024;-80
2023/01/25 03:43:25;;;;;;;;;;;-1.70;99.90;;;;;;5009849;28;19991;-82
2023/01/25 03:45:56;;;;;;;;;;;-1.70;99.90;;;;;;5003711;28;19910;-81
2023/01/25 03:48:22;;;;;;;;;;;-1.70;99.90;;;;;;5008042;28;19913;-80
2023/01/25 03:50:52;;;;;;;;;;;-1.80;99.90;;;;;;5012976;28;20284;-81
2023/01/25 03:53:36;;;;;;;;;;;-1.70;99.90;;;;;;5012093;28;21283;-79
2023/01/25 03:56:01;;;;;;;;;;;-1.70;99.90;;;;;;5007273;28;19910;-79
2023/01/25 03:58:27;;;;;;;;;;;-1.70;99.90;;;;;;5014424;28;19910;-79
2023/01/25 04:00:54;;;;;;;;;;;-1.70;99.90;;;;;;5005831;28;20399;-79
2023/01/25 04:03:20;;;;;;;;;;;-1.70;99.90;;;;;;5004505;28;20012;-79
2023/01/25 04:05:46;;;;;;;;;;;-1.70;99.90;;;;;;5020694;28;19909;-80
2023/01/25 04:08:11;;;;;;;;;;;-1.80;99.90;;;;;;5008658;28;19916;-80
2023/01/25 04:10:37;;;;;;;;;;;-1.80;99.90;;;;;;5010121;28;20313;-81
2023/01/25 04:13:02;;;;;;;;;;;-1.80;99.90;;;;;;4991377;28;19944;-79
2023/01/25 04:15:28;;;;;;;;;;;-1.90;99.90;;;;;;5006981;28;19988;-78
2023/01/25 04:17:55;;;;;;;;;;;-1.90;99.90;;;;;;4990820;28;19913;-77
2023/01/25 04:20:20;;;;;;;;;;;-1.90;99.90;;;;;;5002980;28;19913;-78
2023/01/25 04:22:46;;;;;;;;;;;-1.90;99.90;;;;;;5008155;28;19919;-78
2023/01/25 04:25:11;;;;;;;;;;;-1.90;99.90;;;;;;5004750;28;19917;-78
2023/01/25 04:27:37;;;;;;;;;;;-1.90;99.90;;;;;;5006372;28;19915;-80
2023/01/25 04:30:03;;;;;;;;;;;-1.90;99.90;;;;;;5002678;28;19909;-78
2023/01/25 04:32:28;;;;;;;;;;;-2.00;99.90;;;;;;5019372;28;20578;-80
2023/01/25 04:34:54;;;;;;;;;;;-2.00;99.90;;;;;;5012063;28;19925;-79
2023/01/25 04:37:20;;;;;;;;;;;-2.20;99.90;;;;;;5006294;28;19952;-78
2023/01/25 04:39:45;;;;;;;;;;;-2.20;99.90;;;;;;5011853;28;19949;-78
2023/01/25 04:42:11;;;;;;;;;;;-2.30;99.90;;;;;;5005496;28;19967;-78
2023/01/25 04:44:36;;;;;;;;;;;-2.30;99.90;;;;;;5007779;28;20684;-78
2023/01/25 04:47:02;;;;;;;;;;;-2.40;99.90;;;;;;5004426;28;20031;-78
2023/01/25 04:49:28;;;;;;;;;;;-2.40;99.90;;;;;;5006839;28;19920;-78
2023/01/25 04:51:53;;;;;;;;;;;-2.50;99.90;;;;;;5015261;28;19917;-78
2023/01/25 04:54:19;;;;;;;;;;;-2.50;99.90;;;;;;5020873;28;19920;-78
2023/01/25 04:56:45;;;;;;;;;;;-2.50;99.90;;;;;;5009234;28;19909;-78
2023/01/25 04:59:10;;;;;;;;;;;-2.50;99.90;;;;;;5010412;28;19967;-80
2023/01/25 05:01:36;;;;;;;;;;;-2.40;99.90;;;;;;5017370;28;19932;-79
2023/01/25 05:04:01;;;;;;;;;;;-2.50;99.90;;;;;;5016365;28;19984;-79
2023/01/25 05:06:27;;;;;;;;;;;-2.40;99.90;;;;;;5006174;28;19909;-79
2023/01/25 05:08:53;;;;;;;;;;;-2.40;99.90;;;;;;5003986;28;19983;-78
2023/01/25 05:11:18;;;;;;;;;;;-2.40;99.90;;;;;;4993107;28;19916;-79
2023/01/25 05:13:44;;;;;;;;;;;-2.50;99.90;;;;;;5003699;28;19928;-78
2023/01/25 05:16:09;;;;;;;;;;;-2.40;99.90;;;;;;5013665;28;20440;-78
2023/01/25 05:18:35;;;;;;;;;;;-2.40;99.90;;;;;;5002954;28;19910;-77
2023/01/25 05:21:00;;;;;;;;;;;-2.40;99.90;;;;;;5010745;28;20363;-78
2023/01/25 05:23:26;;;;;;;;;;;-2.40;99.90;;;;;;5010707;28;19936;-77
2023/01/25 05:28:36;;;;;;;;;;;-2.50;99.90;;;;;;5014821;28;20013;-78
2023/01/25 05:31:04;;;;;;;;;;;-2.50;99.90;;;;;;5014637;28;20506;-78
2023/01/25 05:33:30;;;;;;;;;;;-2.50;99.90;;;;;;5014977;28;20004;-79
2023/01/25 05:35:57;;;;;;;;;;;-2.40;99.90;;;;;;5003333;28;19915;-77
2023/01/25 05:38:23;;;;;;;;;;;-2.30;99.90;;;;;;5003367;28;20360;-79
2023/01/25 05:40:49;;;;;;;;;;;-2.20;99.90;;;;;;5003769;28;20008;-79
2023/01/25 05:43:14;;;;;;;;;;;-2.10;99.90;;;;;;5005331;28;19934;-79
2023/01/25 05:45:40;;;;;;;;;;;-2.10;99.90;;;;;;5003267;28;19911;-78
2023/01/25 05:48:05;;;;;;;;;;;-2.10;99.90;;;;;;5004028;28;19936;-78
2023/01/25 05:50:31;;;;;;;;;;;-1.90;99.90;;;;;;5008085;28;19932;-78
2023/01/25 05:52:56;;;;;;;;;;;-1.90;99.90;;;;;;5019344;28;19913;-78
2023/01/25 05:55:22;;;;;;;;;;;-1.80;99.90;;;;;;5016053;28;19918;-79
2023/01/25 05:57:47;;;;;;;;;;;-1.80;99.90;;;;;;5013668;28;19994;-80
2023/01/25 06:00:13;;;;;;;;;;;-1.70;99.90;;;;;;4996417;28;19928;-78
2023/01/25 06:02:39;;;;;;;;;;;-1.60;99.90;;;;;;5016091;28;19948;-79
2023/01/25 06:05:04;;;;;;;;;;;-1.40;99.90;;;;;;5025289;28;19909;-80
2023/01/25 06:07:35;;;;;;;;;;;-1.30;99.90;;;;;;5022175;28;19905;-80
2023/01/25 06:10:01;;;;;;;;;;;-1.20;99.90;;;;;;5018708;28;19923;-78
2023/01/25 06:12:26;;;;;;;;;;;-1.40;99.90;;;;;;5024458;28;19909;-79
2023/01/25 06:14:52;;;;;;;;;;;-1.40;99.90;;;;;;5012127;28;19918;-80
2023/01/25 06:17:18;;;;;;;;;;;-1.30;99.90;;;;;;5016297;28;19996;-78
2023/01/25 06:19:43;;;;;;;;;;;-1.20;99.90;;;;;;5016352;28;19917;-79
2023/01/25 06:22:09;;;;;;;;;;;-1.20;99.90;;;;;;5011248;28;19983;-79
2023/01/25 06:24:35;;;;;;;;;;;-1.10;99.90;;;;;;5011165;28;19914;-79
2023/01/25 06:27:00;;;;;;;;;;;-1.10;99.90;;;;;;5009596;28;20657;-79
2023/01/25 06:29:26;;;;;;;;;;;-1.10;99.90;;;;;;5008234;28;19917;-78
2023/01/25 06:31:51;;;;;;;;;;;-1.10;99.90;;;;;;5012272;28;20794;-78
2023/01/25 06:34:17;;;;;;;;;;;-1.00;99.90;;;;;;5015344;28;19921;-78
2023/01/25 06:36:43;;;;;;;;;;;-1.00;99.90;;;;;;5022365;28;20499;-76
2023/01/25 06:39:08;;;;;;;;;;;-1.00;99.90;;;;;;5021279;28;20280;-78
2023/01/25 06:41:34;;;;;;;;;;;-1.00;99.90;;;;;;5021000;28;20284;-79
2023/01/25 06:44:00;;;;;;;;;;;-1.00;99.90;;;;;;5022825;28;20376;-80
2023/01/25 06:46:25;;;;;;;;;;;-1.10;99.90;;;;;;5022770;28;19956;-79
2023/01/25 06:48:51;;;;;;;;;;;-1.00;99.90;;;;;;5016685;28;19909;-78
2023/01/25 06:51:17;;;;;;;;;;;-1.00;99.90;;;;;;5004845;28;20016;-79
2023/01/25 06:53:44;;;;;;;;;;;-1.00;99.90;;;;;;5017666;28;20112;-78
2023/01/25 06:56:10;;;;;;;;;;;-0.90;99.90;;;;;;5010696;28;19909;-79
2023/01/25 06:58:36;;;;;;;;;;;-0.80;99.90;;;;;;5012486;28;19927;-77
2023/01/25 07:01:06;;;;;;;;;;;-0.90;99.90;;;;;;5023608;28;19909;-78
2023/01/25 07:03:32;;;;;;;;;;;-1.00;99.90;;;;;;5014395;28;19980;-79
2023/01/25 07:05:59;;;;;;;;;;;-1.00;99.90;;;;;;5017574;28;19995;-78
2023/01/25 07:08:24;;;;;;;;;;;-0.90;99.90;;;;;;4995383;28;20070;-78
2023/01/25 07:10:54;;;;;;;;;;;-0.90;99.90;;;;;;5016662;28;20378;-79
2023/01/25 07:13:20;;;;;;;;;;;-0.90;99.90;;;;;;5022752;28;20427;-79
2023/01/25 07:15:50;;;;;;;;;;;-1.00;99.90;;;;;;5015131;28;19956;-79
2023/01/25 07:18:16;;;;;;;;;;;-0.90;99.90;;;;;;5017559;28;19909;-79
2023/01/25 07:20:41;;;;;;;;;;;-0.80;99.90;;;;;;5019379;28;20548;-79
2023/01/25 07:23:07;;;;;;;;;;;-0.90;99.90;;;;;;5011410;28;19913;-80
2023/01/25 07:25:33;;;;;;;;;;;-0.80;99.90;;;;;;5004735;28;20558;-76
2023/01/25 07:27:58;;;;;;;;;;;-0.90;99.90;;;;;;4992366;28;19913;-78
2023/01/25 07:30:24;;;;;;;;;;;-0.90;99.90;;;;;;5006030;28;19920;-78
2023/01/25 07:32:49;;;;;;;;;;;-0.90;99.90;;;;;;5016958;28;19913;-77
2023/01/25 07:35:15;;;;;;;;;;;-0.90;99.90;;;;;;5010388;28;19917;-78
2023/01/25 07:37:40;;;;;;;;;;;-1.00;99.90;;;;;;5004550;28;19947;-78
2023/01/25 07:40:06;;;;;;;;;;;-0.80;99.90;;;;;;5003672;28;19960;-78
2023/01/25 07:42:32;;;;;;;;;;;-0.90;99.90;;;;;;5005817;28;20489;-76
2023/01/25 07:44:57;;;;;;;;;;;-0.90;99.90;;;;;;5008394;28;19916;-77
2023/01/25 07:47:23;;;;;;;;;;;-0.80;99.90;;;;;;5019807;28;19905;-76
2023/01/25 07:49:48;;;;;;;;;;;-0.80;99.90;;;;;;5010318;28;19910;-76
2023/01/25 07:52:14;;;;;;;;;;;-0.80;99.90;;;;;;5007856;28;20711;-77
2023/01/25 07:54:40;;;;;;;;;;;-0.80;99.90;;;;;;5019330;28;19917;-77
2023/01/25 07:57:05;;;;;;;;;;;-0.70;99.90;;;;;;5009416;28;19916;-78
2023/01/25 07:59:31;;;;;;;;;;;-0.60;99.90;;;;;;5009037;28;19921;-77
2023/01/25 08:01:56;;;;;;;;;;;-0.70;99.90;;;;;;5011465;28;19913;-78
2023/01/25 08:04:22;;;;;;;;;;;-0.60;99.90;;;;;;5010989;28;20039;-77
2023/01/25 08:06:48;;;;;;;;;;;-0.70;99.90;;;;;;5016441;28;20359;-76
2023/01/25 08:09:18;;;;;;;;;;;-0.70;99.90;;;;;;5017344;28;19952;-76
2023/01/25 08:11:44;;;;;;;;;;;-0.70;99.90;;;;;;5014440;28;19913;-79
2023/01/25 08:14:10;;;;;;;;;;;-0.60;99.90;;;;;;4986492;28;19917;-77
2023/01/25 08:16:35;;;;;;;;;;;-0.60;99.90;;;;;;5014467;28;19909;-77
2023/01/25 08:19:02;;;;;;;;;;;-0.70;99.90;;;;;;5009909;28;20332;-77
2023/01/25 08:21:28;;;;;;;;;;;-0.80;99.90;;;;;;5003356;28;19913;-77
2023/01/25 08:24:02;;;;;;;;;;;-0.80;99.90;;;;;;5005516;28;19971;-77
2023/01/25 08:26:28;;;;;;;;;;;-0.70;99.90;;;;;;5016152;28;20017;-78
2023/01/25 08:28:54;;;;;;;;;;;-0.70;99.90;;;;;;5019918;28;20055;-76
2023/01/25 08:31:21;;;;;;;;;;;-0.70;99.90;;;;;;5012006;28;19909;-77
2023/01/25 08:33:47;;;;;;;;;;;-0.70;99.90;;;;;;5021330;28;20002;-77
2023/01/25 08:36:13;;;;;;;;;;;-0.60;99.90;;;;;;5015538;28;20004;-79
2023/01/25 08:38:39;;;;;;;;;;;-0.60;99.90;;;;;;5004318;28;19916;-77
2023/01/25 08:41:09;;;;;;;;;;;-0.60;99.90;;;;;;5004883;28;19909;-77
2023/01/25 08:43:35;;;;;;;;;;;-0.80;99.90;;;;;;5014333;28;20602;-78
2023/01/25 08:46:01;;;;;;;;;;;-0.70;99.90;;;;;;5003646;28;20004;-77
2023/01/25 08:48:26;;;;;;;;;;;-0.50;99.90;;;;;;5004859;28;19909;-78
2023/01/25 08:50:52;;;;;;;;;;;-0.50;99.90;;;;;;5005580;28;19917;-77
2023/01/25 08:53:18;;;;;;;;;;;-0.50;99.90;;;;;;5014081;28;19991;-77
2023/01/25 08:55:43;;;;;;;;;;;-0.60;99.90;;;;;;5018905;28;19913;-76
2023/01/25 08:58:09;;;;;;;;;;;-0.50;99.90;;;;;;5009727;28;20378;-78
2023/01/25 09:00:36;;;;;;;;;;;-0.40;99.90;;;;;;5006232;28;20039;-76
2023/01/25 09:03:02;;;;;;;;;;;-0.50;99.90;;;;;;5006513;28;20376;-77
2023/01/25 09:05:28;;;;;;;;;;;-0.30;99.90;;;;;;5007085;28;19933;-76
2023/01/25 09:07:53;;;;;;;;;;;-0.30;99.90;;;;;;5007014;28;20119;-76
2023/01/25 09:10:19;;;;;;;;;;;-0.30;99.90;;;;;;5007443;28;19917;-77
2023/01/25 09:12:44;;;;;;;;;;;-0.30;99.90;;;;;;5007562;28;19915;-77
2023/01/25 09:15:10;;;;;;;;;;;-0.20;99.90;;;;;;5006854;28;19917;-78
2023/01/25 09:17:37;;;;;;;;;;;-0.10;99.90;;;;;;5015301;28;20007;-75
2023/01/25 09:20:05;;;;;;;;;;;-0.10;99.90;;;;;;5011130;28;19920;-76
2023/01/25 09:22:31;;;;;;;;;;;-0.20;99.90;;;;;;5012292;28;19909;-77
2023/01/25 09:24:56;;;;;;;;;;;-0.20;99.90;;;;;;5012443;28;19910;-77
2023/01/25 09:27:22;;;;;;;;;;;-0.10;99.90;;;;;;5016487;28;19916;-78
2023/01/25 09:29:47;;;;;;;;;;;-0.30;99.90;;;;;;5008822;28;19913;-77
2023/01/25 09:32:13;;;;;;;;;;;-0.30;99.90;;;;;;5014682;28;19954;-76
2023/01/25 09:34:39;;;;;;;;;;;-0.30;99.90;;;;;;5017157;28;19957;-78
2023/01/25 09:37:04;;;;;;;;;;;-0.30;99.90;;;;;;5007789;28;19913;-77
2023/01/25 09:39:30;;;;;;;;;;;-0.30;99.90;;;;;;5014940;28;19962;-78
2023/01/25 09:41:58;;;;;;;;;;;-0.20;99.90;;;;;;5023227;28;19909;-77
2023/01/25 09:44:30;;;;;;;;;;;-0.20;99.90;;;;;;5010766;28;19916;-78
2023/01/25 09:46:57;;;;;;;;;;;-0.30;99.90;;;;;;5019618;28;19916;-76
2023/01/25 09:49:32;;;;;;;;;;;-0.20;99.90;;;;;;5015759;28;19910;-77
2023/01/25 09:51:57;;;;;;;;;;;-0.30;99.90;;;;;;5022431;28;19996;-76
2023/01/25 09:54:24;;;;;;;;;;;-0.30;99.90;;;;;;5017428;28;19917;-77
2023/01/25 09:56:50;;;;;;;;;;;-0.20;99.90;;;;;;5010258;28;19913;-79
2023/01/25 09:59:18;;;;;;;;;;;-0.10;99.90;;;;;;5006067;28;19984;-77
2023/01/25 10:01:53;;;;;;;;;;;0.00;99.90;;;;;;5022034;28;20000;-79
2023/01/25 10:04:21;;;;;;;;;;;0.00;99.90;;;;;;5017386;28;19909;-76
2023/01/25 10:06:57;;;;;;;;;;;0.00;99.90;;;;;;4993704;28;19920;-79
2023/01/25 10:09:23;;;;;;;;;;;0.00;99.90;;;;;;5018773;28;19909;-77
2023/01/25 10:11:49;;;;;;;;;;;-0.10;99.90;;;;;;5005599;28;19909;-78
2023/01/25 10:14:16;;;;;;;;;;;0.20;99.90;;;;;;5005424;28;19921;-77
2023/01/25 10:16:48;;;;;;;;;;;0.20;99.90;;;;;;5014512;28;19927;-78
2023/01/25 10:19:14;;;;;;;;;;;0.20;99.90;;;;;;5024916;28;19996;-77
2023/01/25 10:21:46;;;;;;;;;;;0.20;99.90;;;;;;5021045;28;19919;-77
2023/01/25 10:24:27;;;;;;;;;;;0.20;99.90;;;;;;5012384;28;19914;-77
2023/01/25 10:26:56;;;;;;;;;;;0.20;99.90;;;;;;5010222;28;19916;-77
2023/01/25 10:29:25;;;;;;;;;;;0.30;99.90;;;;;;5019771;28;19909;-77
2023/01/25 10:31:52;;;;;;;;;;;0.40;99.90;;;;;;5010224;28;19927;-76
2023/01/25 10:34:18;;;;;;;;;;;0.40;99.90;;;;;;5023288;28;20414;-79
2023/01/25 10:36:45;;;;;;;;;;;0.40;99.90;;;;;;5011833;28;19910;-77
2023/01/25 10:39:10;;;;;;;;;;;0.30;99.90;;;;;;5005409;28;19909;-76
2023/01/25 10:41:39;;;;;;;;;;;0.30;99.90;;;;;;5005679;28;20044;-78
2023/01/25 10:44:23;;;;;;;;;;;0.20;99.90;;;;;;5022698;28;19909;-76
2023/01/25 10:46:51;;;;;;;;;;;0.10;99.90;;;;;;5003909;28;19916;-78
2023/01/25 10:49:20;;;;;;;;;;;0.20;99.90;;;;;;5024688;28;19916;-78
2023/01/25 10:51:46;;;;;;;;;;;0.20;99.90;;;;;;5021449;28;19912;-77
2023/01/25 10:54:13;;;;;;;;;;;0.20;99.90;;;;;;5023150;28;20583;-77
2023/01/25 10:56:40;;;;;;;;;;;0.30;99.90;;;;;;5021440;28;20097;-77
2023/01/25 10:59:07;;;;;;;;;;;0.30;99.90;;;;;;5004446;28;19924;-76
2023/01/25 11:01:34;;;;;;;;;;;0.10;99.90;;;;;;5008183;28;19909;-77
2023/01/25 11:04:00;;;;;;;;;;;0.10;99.90;;;;;;5013156;28;19909;-76
2023/01/25 11:06:30;;;;;;;;;;;0.20;99.90;;;;;;5017531;28;19909;-77
2023/01/25 11:08:56;;;;;;;;;;;0.40;99.90;;;;;;5015606;28;19909;-76
2023/01/25 11:11:24;;;;;;;;;;;0.50;99.90;;;;;;5006675;28;19983;-76
2023/01/25 11:13:50;;;;;;;;;;;0.50;99.90;;;;;;5001589;28;20027;-77
2023/01/25 11:16:23;;;;;;;;;;;0.40;99.90;;;;;;5013936;28;20067;-77
2023/01/25 11:18:53;;;;;;;;;;;0.40;99.90;;;;;;5004104;28;20766;-78
2023/01/25 11:21:32;;;;;;;;;;;0.50;99.90;;;;;;5012117;28;19913;-77
2023/01/25 11:24:01;;;;;;;;;;;0.60;99.90;;;;;;5019014;28;20220;-76
2023/01/25 11:26:26;;;;;;;;;;;0.40;99.90;;;;;;5017665;28;20436;-78
2023/01/25 11:29:05;;;;;;;;;;;0.40;99.90;;;;;;5020384;28;19910;-77
2023/01/25 11:31:30;;;;;;;;;;;0.40;99.90;;;;;;5014826;28;19916;-76
2023/01/25 11:33:56;;;;;;;;;;;0.40;99.90;;;;;;5018315;28;19960;-76
2023/01/25 11:36:40;;;;;;;;;;;0.60;99.90;;;;;;5012448;28;19909;-76
2023/01/25 11:39:11;;;;;;;;;;;1.00;99.90;;;;;;5017520;28;19909;-76
2023/01/25 11:41:46;;;;;;;;;;;1.00;99.90;;;;;;5014945;28;19909;-77
2023/01/25 11:44:25;;;;;;;;;;;1.00;99.90;;;;;;5016368;28;19909;-76
2023/01/25 11:46:57;;;;;;;;;;;0.70;99.90;;;;;;5009372;28;20003;-78
2023/01/25 11:49:41;;;;;;;;;;;0.70;99.90;;;;;;5006345;28;19921;-76
2023/01/25 11:52:25;;;;;;;;;;;0.50;99.90;;;;;;5009265;28;19909;-78
2023/01/25 11:55:18;;;;;;;;;;;0.60;99.90;;;;;;5010275;28;20767;-78
2023/01/25 11:57:57;;;;;;;;;;;0.70;99.90;;;;;;5013769;28;20015;-76
2023/01/25 12:00:35;;;;;;;;;;;0.50;99.90;;;;;;5008532;28;19921;-76
2023/01/25 12:03:12;;;;;;;;;;;0.50;99.90;;;;;;5017250;28;19917;-78
2023/01/25 12:05:56;;;;;;;;;;;0.80;99.90;;;;;;5006925;28;19913;-77
2023/01/25 12:08:24;;;;;;;;;;;0.90;99.90;;;;;;5010715;28;19917;-77
2023/01/25 12:10:57;;;;;;;;;;;1.00;99.90;;;;;;5005380;28;19917;-76
2023/01/25 12:13:29;;;;;;;;;;;1.00;99.90;;;;;;5011710;28;19909;-76
2023/01/25 12:15:57;;;;;;;;;;;1.00;99.90;;;;;;5019510;28;20526;-77
2023/01/25 12:18:23;;;;;;;;;;;0.80;99.90;;;;;;5013488;28;19912;-77
2023/01/25 12:21:08;;;;;;;;;;;0.70;99.90;;;;;;5019099;28;19913;-78
2023/01/25 12:23:43;;;;;;;;;;;0.70;99.90;;;;;;5005927;28;20004;-77
2023/01/25 12:26:09;;;;;;;;;;;0.80;99.90;;;;;;5011007;28;20006;-78
2023/01/25 12:28:44;;;;;;;;;;;0.70;99.90;;;;;;5017440;28;20004;-76
2023/01/25 12:31:18;;;;;;;;;;;0.80;99.90;;;;;;5012045;28;19909;-77
2023/01/25 12:33:51;;;;;;;;;;;1.00;99.90;;;;;;5017791;28;19944;-78
2023/01/25 12:36:26;;;;;;;;;;;0.90;99.90;;;;;;5013462;28;19913;-78
2023/01/25 12:38:51;;;;;;;;;;;0.80;99.90;;;;;;5016984;28;19913;-77
2023/01/25 12:41:37;;;;;;;;;;;1.10;99.90;;;;;;5006442;28;19909;-78
2023/01/25 12:44:06;;;;;;;;;;;0.90;99.90;;;;;;5014930;28;19913;-77
2023/01/25 12:46:45;;;;;;;;;;;0.90;99.90;;;;;;5019137;28;19960;-78
2023/01/25 12:49:20;;;;;;;;;;;1.00;99.90;;;;;;5005365;28;20019;-77
2023/01/25 12:51:47;;;;;;;;;;;0.90;99.90;;;;;;5014235;28;19913;-76
2023/01/25 12:54:16;;;;;;;;;;;0.90;99.90;;;;;;5013877;28;20000;-77
2023/01/25 12:56:45;;;;;;;;;;;1.10;99.90;;;;;;5015023;28;19917;-77
2023/01/25 12:59:11;;;;;;;;;;;0.90;99.90;;;;;;5018565;28;19957;-76
2023/01/25 13:01:43;;;;;;;;;;;1.00;99.90;;;;;;5021385;28;20007;-77
2023/01/25 13:04:38;;;;;;;;;;;1.10;99.90;;;;;;5025420;28;19947;-79
2023/01/25 13:07:07;;;;;;;;;;;1.00;99.90;;;;;;5011191;28;19915;-78
2023/01/25 13:09:41;;;;;;;;;;;1.00;99.90;;;;;;5023213;28;19916;-77
2023/01/25 13:12:09;;;;;;;;;;;1.00;99.90;;;;;;5021012;28;19909;-77
2023/01/25 13:14:39;;;;;;;;;;;1.10;99.90;;;;;;5021144;28;19921;-77
2023/01/25 13:17:20;;;;;;;;;;;0.90;99.90;;;;;;5023754;28;19916;-77
2023/01/25 13:19:46;;;;;;;;;;;1.00;99.90;;;;;;5023077;28;19909;-77
2023/01/25 13:22:12;;;;;;;;;;;1.10;99.90;;;;;;5024738;28;19940;-77
2023/01/25 13:24:56;;;;;;;;;;;1.10;99.90;;;;;;5022084;28;19920;-77
2023/01/25 13:27:24;;;;;;;;;;;0.90;99.90;;;;;;5011075;28;20548;-76
2023/01/25 13:30:18;;;;;;;;;;;0.70;99.90;;;;;;5014445;28;19913;-78
2023/01/25 13:32:44;;;;;;;;;;;0.70;99.90;;;;;;5005554;28;19964;-78
2023/01/25 13:35:24;;;;;;;;;;;0.80;99.90;;;;;;5013007;28;20442;-77
2023/01/25 13:38:10;;;;;;;;;;;0.90;99.90;;;;;;5015914;28;20699;-77
2023/01/25 13:40:37;;;;;;;;;;;0.80;99.90;;;;;;5002263;28;20486;-78
2023/01/25 13:43:11;;;;;;;;;;;0.90;99.90;;;;;;5007854;28;19919;-77
2023/01/25 13:45:39;;;;;;;;;;;0.90;99.90;;;;;;5009521;28;20004;-77
2023/01/25 13:48:07;;;;;;;;;;;0.90;99.90;;;;;;5002229;28;19917;-78
2023/01/25 13:50:36;;;;;;;;;;;0.90;99.90;;;;;;5006602;28;19909;-77
2023/01/25 13:53:04;;;;;;;;;;;1.00;99.90;;;;;;5010889;28;20020;-78
2023/01/25 13:55:59;;;;;;;;;;;1.10;99.90;;;;;;5011081;28;20023;-77
2023/01/25 13:58:26;;;;;;;;;;;1.20;99.90;;;;;;5004688;28;20000;-77
2023/01/25 14:00:56;;;;;;;;;;;1.10;99.90;;;;;;5016604;28;19916;-77
2023/01/25 14:03:25;;;;;;;;;;;1.10;99.90;;;;;;5009281;28;19964;-77
2023/01/25 14:05:52;;;;;;;;;;;1.10;99.90;;;;;;5012365;28;19956;-76
2023/01/25 14:08:18;;;;;;;;;;;1.00;99.90;;;;;;5007502;28;19909;-78
2023/01/25 14:10:44;;;;;;;;;;;0.90;99.90;;;;;;5008402;28;19913;-76
2023/01/25 14:13:13;;;;;;;;;;;0.90;99.90;;;;;;5008460;28;19919;-79
2023/01/25 14:15:38;;;;;;;;;;;1.10;99.90;;;;;;5010531;28;19919;-77
2023/01/25 14:18:11;;;;;;;;;;;1.00;99.90;;;;;;5008611;28;20316;-77
2023/01/25 14:20:36;;;;;;;;;;;1.00;99.90;;;;;;5008149;28;19956;-77
2023/01/25 14:23:04;;;;;;;;;;;1.00;99.90;;;;;;5012599;28;20396;-75
2023/01/25 14:25:31;;;;;;;;;;;1.10;99.90;;;;;;5016144;28;19913;-77
2023/01/25 14:28:00;;;;;;;;;;;1.20;99.90;;;;;;5007407;28;19919;-77